createdAt,value
2022-12-16T00:02:13.193Z,59.00
2022-12-16T00:04:46.041Z,55.80
2022-12-16T00:07:17.848Z,53.80
2022-12-16T00:09:51.308Z,54.40
2022-12-16T00:12:23.863Z,56.50
2022-12-16T00:14:56.908Z,55.80
2022-12-16T00:17:30.686Z,56.00
2022-12-16T00:20:04.936Z,57.10
2022-12-16T00:22:36.805Z,56.10
2022-12-16T00:25:10.925Z,54.50
2022-12-16T00:27:42.827Z,51.60
2022-12-16T00:30:16.635Z,56.80
2022-12-16T00:32:49.594Z,56.70
2022-12-16T00:35:26.306Z,58.10
2022-12-16T00:37:58.889Z,61.80
2022-12-16T00:40:31.729Z,61.60
2022-12-16T00:43:06.361Z,59.30
2022-12-16T00:45:40.207Z,60.80
2022-12-16T00:48:13.061Z,62.50
2022-12-16T00:50:47.258Z,56.20
2022-12-16T00:53:20.891Z,61.20
2022-12-16T00:55:53.729Z,61.20
2022-12-16T00:58:25.777Z,60.30
2022-12-16T01:00:59.287Z,63.80
2022-12-16T01:03:31.737Z,62.40
2022-12-16T01:06:06.057Z,62.40
2022-12-16T01:08:38.072Z,62.30
2022-12-16T01:11:13.003Z,66.80
2022-12-16T01:13:45.848Z,63.20
2022-12-16T01:16:19.427Z,62.60
2022-12-16T01:18:56.675Z,60.10
2022-12-16T01:21:29.528Z,64.90
2022-12-16T01:24:03.926Z,64.50
2022-12-16T01:26:40.235Z,67.60
2022-12-16T01:29:12.903Z,63.70
2022-12-16T01:31:47.887Z,67.50
2022-12-16T01:34:20.310Z,66.90
2022-12-16T01:36:53.221Z,66.00
2022-12-16T01:39:30.800Z,65.30
2022-12-16T01:42:05.149Z,64.20
2022-12-16T01:44:38.133Z,64.80
2022-12-16T01:47:17.855Z,63.60
2022-12-16T01:49:54.435Z,66.30
2022-12-16T01:52:31.180Z,69.20
2022-12-16T01:55:07.406Z,66.00
2022-12-16T01:57:44.030Z,62.70
2022-12-16T02:00:18.942Z,62.70
2022-12-16T02:02:51.393Z,63.70
2022-12-16T02:05:27.410Z,60.60
2022-12-16T02:08:03.527Z,63.50
2022-12-16T02:10:49.198Z,61.50
2022-12-16T02:13:30.586Z,57.40
2022-12-16T02:16:13.897Z,62.50
2022-12-16T02:18:55.884Z,62.80
2022-12-16T02:21:50.098Z,61.30
2022-12-16T02:24:57.868Z,59.50
2022-12-16T02:27:55.373Z,60.30
2022-12-16T02:31:00.573Z,61.30
2022-12-16T02:33:48.951Z,60.60
2022-12-16T02:36:26.265Z,60.70
2022-12-16T02:39:02.641Z,60.10
2022-12-16T02:41:45.311Z,59.60
2022-12-16T02:44:19.987Z,57.20
2022-12-16T02:46:57.161Z,56.20
2022-12-16T02:49:48.595Z,59.00
2022-12-16T02:52:26.318Z,59.90
2022-12-16T02:55:05.749Z,59.40
2022-12-16T02:57:58.552Z,53.60
2022-12-16T03:00:39.288Z,61.00
2022-12-16T03:03:17.213Z,60.90
2022-12-16T03:05:52.751Z,60.00
2022-12-16T03:08:41.034Z,59.70
2022-12-16T03:11:18.492Z,63.00
2022-12-16T03:13:54.786Z,59.50
2022-12-16T03:16:30.929Z,60.40
2022-12-16T03:19:08.285Z,61.60
2022-12-16T03:21:43.685Z,59.90
2022-12-16T03:24:18.607Z,63.10
2022-12-16T03:26:57.454Z,61.70
2022-12-16T03:29:41.761Z,60.80
2022-12-16T03:32:20.935Z,61.80
2022-12-16T03:34:54.877Z,60.80
2022-12-16T03:37:30.621Z,59.70
2022-12-16T03:40:05.995Z,59.30
2022-12-16T03:42:40.724Z,58.80
2022-12-16T03:45:17.191Z,60.20
2022-12-16T03:47:57.476Z,58.50
2022-12-16T03:50:34.063Z,60.90
2022-12-16T03:53:09.274Z,59.00
2022-12-16T03:55:42.226Z,58.60
2022-12-16T03:58:15.763Z,57.90
2022-12-16T04:00:49.725Z,58.60
2022-12-16T04:03:24.984Z,58.70
2022-12-16T04:05:57.033Z,65.30
2022-12-16T04:08:33.886Z,59.90
2022-12-16T04:11:27.010Z,60.90
2022-12-16T04:14:26.102Z,62.90
2022-12-16T04:17:17.281Z,64.70
2022-12-16T04:20:19.898Z,67.70
2022-12-16T04:23:12.918Z,66.70
2022-12-16T04:25:46.593Z,64.90
2022-12-16T04:28:20.568Z,65.70
2022-12-16T04:30:53.003Z,62.00
2022-12-16T04:33:46.405Z,65.60
2022-12-16T04:36:49.597Z,65.70
2022-12-16T04:39:44.201Z,60.50
2022-12-16T04:42:35.924Z,64.60
2022-12-16T04:45:28.536Z,60.40
2022-12-16T04:48:21.845Z,59.80
2022-12-16T04:51:14.842Z,58.30
2022-12-16T04:54:06.341Z,54.30
2022-12-16T04:56:56.471Z,53.50
2022-12-16T04:59:46.600Z,51.30
2022-12-16T05:02:38.751Z,50.90
2022-12-16T05:05:31.231Z,51.50
2022-12-16T05:08:23.439Z,52.30
2022-12-16T05:11:13.468Z,51.70
2022-12-16T05:14:04.930Z,51.40
2022-12-16T05:16:58.147Z,55.40
2022-12-16T05:19:51.714Z,56.40
2022-12-16T05:22:45.200Z,55.50
2022-12-16T05:25:37.552Z,59.70
2022-12-16T05:28:29.297Z,63.00
2022-12-16T05:31:22.705Z,61.70
2022-12-16T05:34:13.965Z,66.10
2022-12-16T05:37:04.437Z,65.90
2022-12-16T05:39:54.720Z,63.50
2022-12-16T05:42:46.794Z,63.10
2022-12-16T05:45:37.752Z,56.30
2022-12-16T05:48:31.182Z,58.10
2022-12-16T05:51:22.072Z,54.30
2022-12-16T05:54:12.246Z,50.10
2022-12-16T05:57:03.470Z,52.40
2022-12-16T05:59:53.954Z,55.60
2022-12-16T06:02:47.018Z,54.70
2022-12-16T06:05:39.244Z,52.10
2022-12-16T06:08:32.339Z,49.30
2022-12-16T06:11:26.177Z,52.00
2022-12-16T06:14:16.637Z,55.20
2022-12-16T06:17:09.852Z,55.40
2022-12-16T06:20:01.659Z,59.60
2022-12-16T06:22:54.236Z,63.60
2022-12-16T06:25:44.720Z,52.20
2022-12-16T06:28:33.945Z,54.60
2022-12-16T06:31:26.588Z,57.30
2022-12-16T06:34:17.342Z,52.70
2022-12-16T06:37:09.340Z,51.00
2022-12-16T06:40:00.085Z,55.80
2022-12-16T06:42:53.751Z,57.30
2022-12-16T06:45:44.543Z,58.00
2022-12-16T06:48:37.080Z,60.10
2022-12-16T06:51:27.505Z,60.20
2022-12-16T06:54:18.347Z,65.90
2022-12-16T06:57:10.393Z,66.80
2022-12-16T07:00:00.200Z,66.40
2022-12-16T07:02:52.557Z,62.90
2022-12-16T07:05:43.600Z,66.90
2022-12-16T07:08:34.518Z,74.30
2022-12-16T07:11:27.238Z,78.20
2022-12-16T07:14:17.462Z,67.70
2022-12-16T07:17:05.678Z,66.80
2022-12-16T07:19:56.600Z,94.30
2022-12-16T07:22:54.241Z,72.10
2022-12-16T07:25:53.964Z,65.40
2022-12-16T07:28:47.425Z,65.10
2022-12-16T07:31:39.022Z,63.40
2022-12-16T07:34:31.769Z,58.30
2022-12-16T07:37:27.393Z,59.00
2022-12-16T07:40:19.774Z,55.80
2022-12-16T07:43:13.335Z,55.30
2022-12-16T07:46:06.535Z,55.70
2022-12-16T07:48:57.437Z,58.50
2022-12-16T07:51:47.161Z,57.50
2022-12-16T07:54:36.750Z,58.40
2022-12-16T07:57:29.318Z,62.50
2022-12-16T08:00:23.226Z,59.20
2022-12-16T08:03:16.109Z,58.80
2022-12-16T08:06:05.719Z,59.30
2022-12-16T08:08:56.419Z,59.40
2022-12-16T08:11:46.002Z,57.80
2022-12-16T08:14:37.305Z,58.20
2022-12-16T08:17:28.307Z,58.70
2022-12-16T08:20:18.180Z,58.00
2022-12-16T08:23:10.860Z,56.30
2022-12-16T08:26:01.840Z,56.50
2022-12-16T08:28:55.195Z,53.00
2022-12-16T08:31:45.689Z,53.20
2022-12-16T08:34:37.048Z,55.50
2022-12-16T08:37:28.019Z,53.00
2022-12-16T08:40:34.904Z,50.30
2022-12-16T08:43:25.989Z,54.50
2022-12-16T08:46:17.831Z,48.90
2022-12-16T08:49:08.644Z,55.70
2022-12-16T08:52:02.711Z,52.80
2022-12-16T08:54:53.791Z,53.80
2022-12-16T08:57:44.685Z,53.50
2022-12-16T09:00:38.041Z,59.60
2022-12-16T09:03:29.040Z,54.90
2022-12-16T09:06:20.541Z,54.40
2022-12-16T09:09:11.023Z,54.40
2022-12-16T09:12:00.763Z,54.60
2022-12-16T09:14:50.481Z,56.20
2022-12-16T09:17:43.573Z,71.70
2022-12-16T09:20:37.133Z,80.10
2022-12-16T09:23:27.441Z,124.20
2022-12-16T09:26:20.470Z,87.50
2022-12-16T09:29:12.512Z,60.80
2022-12-16T09:32:02.910Z,61.80
2022-12-16T09:34:53.296Z,74.40
2022-12-16T09:37:43.560Z,48.40
2022-12-16T09:40:36.416Z,46.20
2022-12-16T09:43:39.676Z,45.30
2022-12-16T09:46:34.795Z,44.60
2022-12-16T09:49:33.980Z,49.40
2022-12-16T09:52:27.467Z,46.80
2022-12-16T09:55:18.429Z,46.80
2022-12-16T09:58:10.384Z,43.80
2022-12-16T10:01:01.508Z,44.00
2022-12-16T10:03:57.986Z,45.20
2022-12-16T10:07:04.285Z,50.70
2022-12-16T10:10:01.638Z,48.20
2022-12-16T10:12:58.862Z,49.10
2022-12-16T10:15:55.401Z,44.30
2022-12-16T10:19:00.480Z,43.80
2022-12-16T10:21:57.076Z,41.60
2022-12-16T10:24:55.870Z,44.10
2022-12-16T10:27:53.501Z,45.60
2022-12-16T10:30:48.052Z,45.30
2022-12-16T10:33:39.934Z,50.00
2022-12-16T10:36:33.711Z,65.80
2022-12-16T10:39:27.366Z,56.00
2022-12-16T10:42:23.867Z,52.70
2022-12-16T10:45:17.485Z,50.20
2022-12-16T10:48:08.653Z,49.80
2022-12-16T10:51:02.183Z,50.90
2022-12-16T10:53:55.392Z,50.40
2022-12-16T10:57:07.641Z,51.40
2022-12-16T10:59:59.991Z,50.40
2022-12-16T11:02:51.170Z,47.70
2022-12-16T11:05:51.938Z,47.10
2022-12-16T11:08:47.376Z,42.20
2022-12-16T11:11:44.877Z,44.10
2022-12-16T11:15:05.545Z,43.10
2022-12-16T11:17:56.228Z,46.80
2022-12-16T11:20:48.652Z,47.40
2022-12-16T11:23:41.537Z,48.00
2022-12-16T11:26:37.388Z,81.70
2022-12-16T11:29:32.356Z,52.30
2022-12-16T11:32:25.772Z,45.10
2022-12-16T11:35:20.460Z,50.70
2022-12-16T11:38:12.034Z,50.90
2022-12-16T11:41:06.156Z,48.30
2022-12-16T11:43:59.642Z,74.60
2022-12-16T11:46:53.050Z,56.70
2022-12-16T11:49:51.419Z,56.40
2022-12-16T11:52:44.616Z,51.70
2022-12-16T11:58:57.577Z,58.60
2022-12-16T12:01:51.889Z,62.20
2022-12-16T12:04:45.834Z,54.40
2022-12-16T12:07:49.832Z,52.60
2022-12-16T12:11:20.508Z,54.40
2022-12-16T12:14:22.595Z,50.10
2022-12-16T12:17:23.246Z,53.20
2022-12-16T12:20:23.307Z,49.80
2022-12-16T12:23:13.993Z,50.90
2022-12-16T12:26:10.555Z,56.60
2022-12-16T12:29:24.522Z,56.80
2022-12-16T12:32:20.262Z,55.40
2022-12-16T12:35:15.755Z,51.10
2022-12-16T12:38:17.497Z,51.70
2022-12-16T12:41:12.258Z,50.40
2022-12-16T12:44:10.420Z,48.20
2022-12-16T12:47:07.855Z,47.00
2022-12-16T12:50:05.731Z,71.10
2022-12-16T12:53:23.416Z,48.80
2022-12-16T12:56:23.326Z,50.40
2022-12-16T12:59:16.418Z,48.20
2022-12-16T13:02:07.544Z,64.80
2022-12-16T13:05:00.983Z,68.10
2022-12-16T13:07:54.698Z,65.90
2022-12-16T13:10:58.029Z,55.20
2022-12-16T13:13:56.514Z,54.90
2022-12-16T13:17:23.436Z,55.80
2022-12-16T13:20:17.773Z,61.80
2022-12-16T13:23:12.006Z,61.90
2022-12-16T13:26:12.952Z,75.50
2022-12-16T13:29:26.868Z,95.60
2022-12-16T13:32:23.398Z,104.80
2022-12-16T13:35:21.012Z,77.00
2022-12-16T13:38:29.768Z,65.40
2022-12-16T13:41:22.893Z,71.80
2022-12-16T13:44:13.918Z,89.70
2022-12-16T13:47:08.901Z,69.80
2022-12-16T13:50:05.476Z,81.80
2022-12-16T13:53:16.873Z,74.60
2022-12-16T13:56:15.255Z,73.70
2022-12-16T13:59:08.472Z,71.50
2022-12-16T14:02:14.120Z,74.80
2022-12-16T14:05:07.706Z,78.30
2022-12-16T14:08:01.372Z,88.10
2022-12-16T14:10:54.426Z,76.10
2022-12-16T14:13:55.671Z,89.60
2022-12-16T14:16:56.692Z,87.40
2022-12-16T14:19:53.910Z,87.30
2022-12-16T14:22:56.145Z,92.90
2022-12-16T14:25:52.001Z,87.90
2022-12-16T14:28:45.775Z,93.50
2022-12-16T14:31:38.958Z,94.00
2022-12-16T14:34:34.936Z,95.80
2022-12-16T14:37:34.776Z,87.30
2022-12-16T14:40:39.388Z,89.50
2022-12-16T14:43:35.742Z,94.30
2022-12-16T14:46:31.202Z,98.40
2022-12-16T14:49:23.517Z,103.30
2022-12-16T14:52:15.242Z,119.80
2022-12-16T14:55:08.682Z,100.20
2022-12-16T14:57:59.102Z,116.10
2022-12-16T15:00:55.965Z,102.90
2022-12-16T15:03:56.203Z,101.00
2022-12-16T15:06:49.196Z,112.50
2022-12-16T15:09:43.537Z,109.60
2022-12-16T15:12:36.635Z,104.70
2022-12-16T15:15:33.433Z,124.90
2022-12-16T15:18:33.594Z,115.00
2022-12-16T15:21:24.545Z,112.80
2022-12-16T15:24:15.632Z,98.80
2022-12-16T15:27:08.748Z,105.90
2022-12-16T15:30:02.757Z,98.30
2022-12-16T15:32:55.942Z,110.30
2022-12-16T15:35:50.456Z,134.60
2022-12-16T15:38:48.797Z,98.80
2022-12-16T15:41:52.461Z,141.10
2022-12-16T15:44:47.096Z,105.00
2022-12-16T15:48:05.808Z,106.90
2022-12-16T15:50:56.389Z,104.60
2022-12-16T15:53:52.485Z,104.50
2022-12-16T15:56:45.556Z,120.60
2022-12-16T15:59:47.960Z,110.20
2022-12-16T16:02:42.811Z,107.90
2022-12-16T16:05:38.544Z,124.00
2022-12-16T16:08:31.183Z,149.70
2022-12-16T16:11:22.640Z,93.50
2022-12-16T16:14:14.500Z,96.20
2022-12-16T16:17:04.624Z,96.40
2022-12-16T16:19:58.848Z,112.60
2022-12-16T16:22:59.092Z,130.50
2022-12-16T16:25:50.152Z,137.90
2022-12-16T16:28:40.288Z,123.30
2022-12-16T16:31:34.642Z,133.00
2022-12-16T16:34:32.700Z,109.80
2022-12-16T16:37:28.269Z,115.40
2022-12-16T16:40:19.738Z,107.50
2022-12-16T16:43:09.926Z,104.00
2022-12-16T16:46:01.638Z,103.30
2022-12-16T16:48:55.099Z,105.70
2022-12-16T16:51:45.417Z,111.80
2022-12-16T16:54:36.157Z,106.10
2022-12-16T16:57:32.146Z,113.30
2022-12-16T17:00:23.837Z,105.80
2022-12-16T17:03:15.022Z,134.50
2022-12-16T17:06:05.899Z,157.00
2022-12-16T17:08:58.957Z,138.40
2022-12-16T17:11:52.576Z,175.00
2022-12-16T17:14:45.848Z,148.80
2022-12-16T17:17:37.068Z,160.90
2022-12-16T17:20:38.158Z,122.60
2022-12-16T17:23:28.608Z,109.40
2022-12-16T17:26:34.277Z,108.30
2022-12-16T17:29:29.910Z,136.50
2022-12-16T17:32:23.833Z,125.80
2022-12-16T17:35:16.069Z,107.70
2022-12-16T17:38:13.217Z,152.90
2022-12-16T17:41:04.291Z,128.80
2022-12-16T17:43:57.816Z,127.70
2022-12-16T17:46:55.981Z,137.10
2022-12-16T17:49:46.983Z,108.20
2022-12-16T17:52:37.415Z,123.20
2022-12-16T17:55:31.264Z,129.00
2022-12-16T17:58:21.333Z,133.40
2022-12-16T18:01:15.553Z,115.00
2022-12-16T18:04:10.074Z,136.60
2022-12-16T18:07:04.392Z,134.20
2022-12-16T18:09:55.631Z,136.30
2022-12-16T18:12:49.080Z,119.10
2022-12-16T18:15:39.657Z,118.50
2022-12-16T18:18:46.413Z,110.00
2022-12-16T18:21:37.238Z,126.00
2022-12-16T18:24:35.017Z,121.90
2022-12-16T18:27:26.132Z,109.90
2022-12-16T18:30:20.034Z,110.10
2022-12-16T18:33:10.645Z,109.30
2022-12-16T18:36:06.473Z,112.20
2022-12-16T18:38:57.340Z,116.80
2022-12-16T18:41:50.706Z,113.10
2022-12-16T18:44:40.820Z,117.30
2022-12-16T18:47:43.045Z,127.70
2022-12-16T18:50:37.844Z,122.50
2022-12-16T18:53:32.057Z,112.90
2022-12-16T18:56:25.023Z,109.90
2022-12-16T18:59:19.294Z,110.00
2022-12-16T19:02:11.254Z,109.80
2022-12-16T19:05:05.907Z,112.50
2022-12-16T19:07:56.531Z,108.90
2022-12-16T19:10:47.282Z,138.50
2022-12-16T19:13:38.682Z,125.00
2022-12-16T19:16:31.889Z,142.20
2022-12-16T19:19:23.669Z,153.80
2022-12-16T19:22:15.978Z,129.70
2022-12-16T19:25:06.687Z,135.70
2022-12-16T19:27:56.891Z,148.30
2022-12-16T19:30:48.792Z,124.90
2022-12-16T19:33:51.905Z,136.80
2022-12-16T19:36:47.076Z,125.70
2022-12-16T19:39:41.516Z,115.20
2022-12-16T19:42:32.075Z,124.30
2022-12-16T19:45:22.878Z,113.80
2022-12-16T19:48:16.332Z,117.20
2022-12-16T19:51:09.542Z,109.90
2022-12-16T19:54:03.631Z,118.50
2022-12-16T19:57:04.523Z,121.60
2022-12-16T19:59:54.741Z,131.00
2022-12-16T20:02:49.076Z,139.30
2022-12-16T20:05:40.919Z,131.60
2022-12-16T20:08:34.434Z,131.40
2022-12-16T20:11:27.516Z,126.70
2022-12-16T20:14:19.706Z,129.00
2022-12-16T20:17:10.754Z,121.30
2022-12-16T20:20:01.092Z,117.50
2022-12-16T20:22:53.993Z,123.50
2022-12-16T20:25:48.059Z,130.20
2022-12-16T20:28:39.672Z,133.00
2022-12-16T20:31:30.516Z,144.10
2022-12-16T20:34:21.569Z,142.50
2022-12-16T20:37:12.600Z,139.50
2022-12-16T20:40:05.793Z,148.80
2022-12-16T20:43:00.449Z,152.20
2022-12-16T20:45:56.193Z,158.20
2022-12-16T20:48:48.758Z,153.80
2022-12-16T20:51:40.900Z,152.80
2022-12-16T20:54:33.541Z,152.80
2022-12-16T20:57:24.307Z,155.50
2022-12-16T21:00:17.545Z,152.50
2022-12-16T21:03:10.723Z,159.20
2022-12-16T21:06:16.803Z,159.30
2022-12-16T21:09:11.489Z,153.00
2022-12-16T21:12:03.728Z,162.80
2022-12-16T21:14:54.374Z,190.50
2022-12-16T21:17:47.076Z,153.50
2022-12-16T21:20:38.432Z,171.40
2022-12-16T21:23:31.452Z,152.80
2022-12-16T21:26:23.301Z,151.70
2022-12-16T21:29:13.938Z,158.00
2022-12-16T21:32:04.744Z,193.00
2022-12-16T21:34:54.622Z,160.40
2022-12-16T21:37:49.366Z,167.70
2022-12-16T21:40:42.564Z,181.40
2022-12-16T21:43:41.129Z,167.10
2022-12-16T21:46:34.484Z,209.00
2022-12-16T21:49:27.062Z,180.10
2022-12-16T21:52:18.574Z,162.10
2022-12-16T21:55:11.308Z,160.40
2022-12-16T21:58:05.127Z,164.60
2022-12-16T22:01:00.554Z,163.10
2022-12-16T22:03:56.777Z,158.70
2022-12-16T22:06:50.554Z,148.60
2022-12-16T22:09:43.005Z,137.50
2022-12-16T22:12:37.789Z,135.90
2022-12-16T22:15:30.565Z,134.10
2022-12-16T22:18:23.900Z,120.70
2022-12-16T22:21:19.125Z,117.10
2022-12-16T22:24:11.413Z,118.50
2022-12-16T22:27:04.662Z,131.20
2022-12-16T22:29:56.019Z,129.10
2022-12-16T22:32:49.513Z,140.90
2022-12-16T22:35:42.053Z,146.60
2022-12-16T22:38:32.061Z,153.40
2022-12-16T22:41:25.985Z,155.40
2022-12-16T22:44:17.537Z,173.30
2022-12-16T22:47:07.856Z,156.40
2022-12-16T22:49:59.604Z,151.20
2022-12-16T22:53:06.689Z,147.10
2022-12-16T22:56:01.913Z,151.00
2022-12-16T22:58:55.015Z,155.70
2022-12-16T23:01:46.476Z,145.70
2022-12-16T23:04:36.570Z,139.50
2022-12-16T23:07:26.448Z,125.00
2022-12-16T23:10:20.877Z,124.60
2022-12-16T23:13:11.527Z,125.80
2022-12-16T23:16:04.178Z,120.70
2022-12-16T23:18:59.710Z,121.80
2022-12-16T23:21:51.576Z,121.10
2022-12-16T23:24:45.325Z,121.00
2022-12-16T23:27:36.025Z,116.00
2022-12-16T23:30:29.682Z,120.10
2022-12-16T23:33:23.991Z,113.60
2022-12-16T23:36:14.052Z,116.60
2022-12-16T23:39:06.401Z,117.40
2022-12-16T23:41:58.226Z,117.80
2022-12-16T23:44:56.250Z,116.10
2022-12-16T23:47:50.033Z,120.60
2022-12-16T23:50:41.084Z,113.70
2022-12-16T23:53:31.490Z,116.70
2022-12-16T23:56:23.977Z,104.70
2022-12-16T23:59:13.346Z,108.20
